sensor_id;sensor_type;location;lat;lon;timestamp;pressure;altitude;pressure_sealevel;temperature
22269;BMP280;11303;50.772;19.670;2023-02-01T00:00:31;98076.94;;;2.98
22269;BMP280;11303;50.772;19.670;2023-02-01T00:02:34;98070.22;;;3.01
22269;BMP280;11303;50.772;19.670;2023-02-01T00:04:37;98071.72;;;3.02
22269;BMP280;11303;50.772;19.670;2023-02-01T00:06:39;98052.28;;;3.03
22269;BMP280;11303;50.772;19.670;2023-02-01T00:08:40;98056.81;;;3.06
22269;BMP280;11303;50.772;19.670;2023-02-01T00:10:42;98056.81;;;3.06
22269;BMP280;11303;50.772;19.670;2023-02-01T00:12:43;98029.91;;;3.09
22269;BMP280;11303;50.772;19.670;2023-02-01T00:14:46;98043.41;;;3.11
22269;BMP280;11303;50.772;19.670;2023-02-01T00:16:47;98043.75;;;3.09
22269;BMP280;11303;50.772;19.670;2023-02-01T00:18:51;98038.25;;;3.18
22269;BMP280;11303;50.772;19.670;2023-02-01T00:20:52;98037.13;;;3.19
22269;BMP280;11303;50.772;19.670;2023-02-01T00:22:54;98026.28;;;3.20
22269;BMP280;11303;50.772;19.670;2023-02-01T00:24:56;98036.78;;;3.24
22269;BMP280;11303;50.772;19.670;2023-02-01T00:26:57;98039.09;;;3.29
22269;BMP280;11303;50.772;19.670;2023-02-01T00:29:00;98032.78;;;3.33
22269;BMP280;11303;50.772;19.670;2023-02-01T00:31:03;98025.69;;;3.34
22269;BMP280;11303;50.772;19.670;2023-02-01T00:33:05;98036.19;;;3.37
22269;BMP280;11303;50.772;19.670;2023-02-01T00:35:07;98022.72;;;3.39
22269;BMP280;11303;50.772;19.670;2023-02-01T00:37:09;98018.59;;;3.38
22269;BMP280;11303;50.772;19.670;2023-02-01T00:39:11;98037.34;;;3.40
22269;BMP280;11303;50.772;19.670;2023-02-01T00:41:18;98028.78;;;3.43
22269;BMP280;11303;50.772;19.670;2023-02-01T00:43:20;98025.00;;;3.40
22269;BMP280;11303;50.772;19.670;2023-02-01T00:45:21;98029.50;;;3.40
22269;BMP280;11303;50.772;19.670;2023-02-01T00:47:23;98061.66;;;3.37
22269;BMP280;11303;50.772;19.670;2023-02-01T00:49:25;98057.78;;;3.27
22269;BMP280;11303;50.772;19.670;2023-02-01T00:51:28;98054.34;;;3.20
22269;BMP280;11303;50.772;19.670;2023-02-01T00:53:31;98064.41;;;3.14
22269;BMP280;11303;50.772;19.670;2023-02-01T00:55:33;98056.13;;;3.09
22269;BMP280;11303;50.772;19.670;2023-02-01T00:57:35;98055.28;;;3.05
22269;BMP280;11303;50.772;19.670;2023-02-01T00:59:37;98060.88;;;3.00
22269;BMP280;11303;50.772;19.670;2023-02-01T01:01:38;98078.00;;;2.97
22269;BMP280;11303;50.772;19.670;2023-02-01T01:03:42;98084.31;;;2.93
22269;BMP280;11303;50.772;19.670;2023-02-01T01:05:45;98102.59;;;2.86
22269;BMP280;11303;50.772;19.670;2023-02-01T01:07:47;98119.28;;;2.78
22269;BMP280;11303;50.772;19.670;2023-02-01T01:09:48;98103.31;;;2.57
22269;BMP280;11303;50.772;19.670;2023-02-01T01:11:50;98094.38;;;2.35
22269;BMP280;11303;50.772;19.670;2023-02-01T01:13:55;98081.50;;;2.23
22269;BMP280;11303;50.772;19.670;2023-02-01T01:15:59;98090.81;;;2.20
22269;BMP280;11303;50.772;19.670;2023-02-01T01:18:04;98081.84;;;2.21
22269;BMP280;11303;50.772;19.670;2023-02-01T01:20:07;98089.44;;;2.27
22269;BMP280;11303;50.772;19.670;2023-02-01T01:22:08;98089.09;;;2.31
22269;BMP280;11303;50.772;19.670;2023-02-01T01:24:10;98107.88;;;2.37
22269;BMP280;11303;50.772;19.670;2023-02-01T01:26:23;98106.06;;;2.41
22269;BMP280;11303;50.772;19.670;2023-02-01T01:28:25;98109.09;;;2.43
22269;BMP280;11303;50.772;19.670;2023-02-01T01:30:26;98113.22;;;2.44
22269;BMP280;11303;50.772;19.670;2023-02-01T01:32:28;98116.97;;;2.47
22269;BMP280;11303;50.772;19.670;2023-02-01T01:34:29;98111.00;;;2.46
22269;BMP280;11303;50.772;19.670;2023-02-01T01:36:31;98122.56;;;2.45
22269;BMP280;11303;50.772;19.670;2023-02-01T01:38:32;98123.31;;;2.46
22269;BMP280;11303;50.772;19.670;2023-02-01T01:40:34;98126.66;;;2.43
22269;BMP280;11303;50.772;19.670;2023-02-01T01:42:43;98129.91;;;2.36
22269;BMP280;11303;50.772;19.670;2023-02-01T01:45:05;98121.16;;;2.28
22269;BMP280;11303;50.772;19.670;2023-02-01T01:47:08;98121.16;;;2.28
22269;BMP280;11303;50.772;19.670;2023-02-01T01:49:14;98108.09;;;2.28
22269;BMP280;11303;50.772;19.670;2023-02-01T01:51:20;98114.44;;;2.27
22269;BMP280;11303;50.772;19.670;2023-02-01T01:53:29;98131.28;;;2.27
22269;BMP280;11303;50.772;19.670;2023-02-01T01:55:35;98148.44;;;2.27
22269;BMP280;11303;50.772;19.670;2023-02-01T01:57:40;98132.75;;;2.27
22269;BMP280;11303;50.772;19.670;2023-02-01T01:59:47;98149.59;;;2.27
22269;BMP280;11303;50.772;19.670;2023-02-01T02:01:50;98143.59;;;2.26
22269;BMP280;11303;50.772;19.670;2023-02-01T02:03:53;98140.22;;;2.25
22269;BMP280;11303;50.772;19.670;2023-02-01T02:05:56;98134.97;;;2.25
22269;BMP280;11303;50.772;19.670;2023-02-01T02:07:59;98135.66;;;2.22
22269;BMP280;11303;50.772;19.670;2023-02-01T02:10:07;98147.66;;;2.23
22269;BMP280;11303;50.772;19.670;2023-02-01T02:12:11;98142.44;;;2.23
22269;BMP280;11303;50.772;19.670;2023-02-01T02:14:16;98150.66;;;2.25
22269;BMP280;11303;50.772;19.670;2023-02-01T02:21:15;98141.81;;;2.33
22269;BMP280;11303;50.772;19.670;2023-02-01T02:34:46;98134.59;;;2.50
22269;BMP280;11303;50.772;19.670;2023-02-01T02:41:31;98147.34;;;2.51
22269;BMP280;11303;50.772;19.670;2023-02-01T02:43:57;98144.19;;;2.42
22269;BMP280;11303;50.772;19.670;2023-02-01T02:48:45;98144.50;;;2.37
22269;BMP280;11303;50.772;19.670;2023-02-01T02:51:01;98143.50;;;2.45
22269;BMP280;11303;50.772;19.670;2023-02-01T02:53:28;98148.91;;;2.56
22269;BMP280;11303;50.772;19.670;2023-02-01T02:55:50;98134.00;;;2.60
22269;BMP280;11303;50.772;19.670;2023-02-01T02:57:54;98147.84;;;2.60
22269;BMP280;11303;50.772;19.670;2023-02-01T03:00:18;98154.22;;;2.63
22269;BMP280;11303;50.772;19.670;2023-02-01T03:02:40;98149.72;;;2.60
22269;BMP280;11303;50.772;19.670;2023-02-01T03:05:00;98147.44;;;2.58
22269;BMP280;11303;50.772;19.670;2023-02-01T03:07:45;98153.75;;;2.54
22269;BMP280;11303;50.772;19.670;2023-02-01T03:09:36;98148.44;;;2.50
22269;BMP280;11303;50.772;19.670;2023-02-01T03:11:38;98144.97;;;2.43
22269;BMP280;11303;50.772;19.670;2023-02-01T03:14:02;98147.47;;;2.36
22269;BMP280;11303;50.772;19.670;2023-02-01T03:16:28;98153.41;;;2.33
22269;BMP280;11303;50.772;19.670;2023-02-01T03:19:19;98171.28;;;2.30
22269;BMP280;11303;50.772;19.670;2023-02-01T03:21:05;98164.59;;;2.33
22269;BMP280;11303;50.772;19.670;2023-02-01T03:23:10;98175.56;;;2.39
22269;BMP280;11303;50.772;19.670;2023-02-01T03:25:21;98172.25;;;2.42
22269;BMP280;11303;50.772;19.670;2023-02-01T03:27:34;98178.34;;;2.49
22269;BMP280;11303;50.772;19.670;2023-02-01T03:29:44;98178.81;;;2.55
22269;BMP280;11303;50.772;19.670;2023-02-01T03:31:47;98170.53;;;2.53
22269;BMP280;11303;50.772;19.670;2023-02-01T03:33:48;98171.38;;;2.57
22269;BMP280;11303;50.772;19.670;2023-02-01T03:36:05;98172.09;;;2.57
22269;BMP280;11303;50.772;19.670;2023-02-01T03:38:21;98163.81;;;2.52
22269;BMP280;11303;50.772;19.670;2023-02-01T03:40:24;98174.16;;;2.45
22269;BMP280;11303;50.772;19.670;2023-02-01T03:42:48;98178.69;;;2.48
22269;BMP280;11303;50.772;19.670;2023-02-01T03:45:03;98174.69;;;2.54
22269;BMP280;11303;50.772;19.670;2023-02-01T03:47:23;98180.00;;;2.61
22269;BMP280;11303;50.772;19.670;2023-02-01T03:49:33;98176.34;;;2.65
22269;BMP280;11303;50.772;19.670;2023-02-01T03:51:37;98175.28;;;2.70
22269;BMP280;11303;50.772;19.670;2023-02-01T03:53:40;98180.19;;;2.75
22269;BMP280;11303;50.772;19.670;2023-02-01T03:55:44;98181.38;;;2.77
22269;BMP280;11303;50.772;19.670;2023-02-01T03:57:52;98186.63;;;2.77
22269;BMP280;11303;50.772;19.670;2023-02-01T04:00:08;98185.09;;;2.76
22269;BMP280;11303;50.772;19.670;2023-02-01T04:02:10;98188.91;;;2.79
22269;BMP280;11303;50.772;19.670;2023-02-01T04:04:12;98188.13;;;2.78
22269;BMP280;11303;50.772;19.670;2023-02-01T04:06:21;98189.28;;;2.81
22269;BMP280;11303;50.772;19.670;2023-02-01T04:08:23;98185.16;;;2.80
22269;BMP280;11303;50.772;19.670;2023-02-01T04:10:25;98190.81;;;2.82
22269;BMP280;11303;50.772;19.670;2023-02-01T04:12:27;98191.91;;;2.81
22269;BMP280;11303;50.772;19.670;2023-02-01T04:14:28;98189.63;;;2.79
22269;BMP280;11303;50.772;19.670;2023-02-01T04:16:31;98188.13;;;2.78
22269;BMP280;11303;50.772;19.670;2023-02-01T04:18:33;98181.38;;;2.77
22269;BMP280;11303;50.772;19.670;2023-02-01T04:20:34;98196.34;;;2.77
22269;BMP280;11303;50.772;19.670;2023-02-01T04:22:36;98195.22;;;2.78
22269;BMP280;11303;50.772;19.670;2023-02-01T04:24:38;98196.41;;;2.80
22269;BMP280;11303;50.772;19.670;2023-02-01T04:26:39;98197.13;;;2.81
22269;BMP280;11303;50.772;19.670;2023-02-01T04:28:41;98193.44;;;2.82
22269;BMP280;11303;50.772;19.670;2023-02-01T04:30:43;98185.97;;;2.84
22269;BMP280;11303;50.772;19.670;2023-02-01T04:32:45;98188.94;;;2.82
22269;BMP280;11303;50.772;19.670;2023-02-01T04:34:46;98198.66;;;2.82
22269;BMP280;11303;50.772;19.670;2023-02-01T04:36:48;98184.41;;;2.79
22269;BMP280;11303;50.772;19.670;2023-02-01T04:38:50;98197.91;;;2.81
22269;BMP280;11303;50.772;19.670;2023-02-01T04:40:52;98197.19;;;2.84
22269;BMP280;11303;50.772;19.670;2023-02-01T04:42:53;98200.22;;;2.86
22269;BMP280;11303;50.772;19.670;2023-02-01T04:44:55;98198.69;;;2.85
22269;BMP280;11303;50.772;19.670;2023-02-01T04:46:57;98201.31;;;2.85
22269;BMP280;11303;50.772;19.670;2023-02-01T04:48:58;98197.25;;;2.88
22269;BMP280;11303;50.772;19.670;2023-02-01T04:51:00;98210.75;;;2.90
22269;BMP280;11303;50.772;19.670;2023-02-01T04:53:01;98198.81;;;2.92
22269;BMP280;11303;50.772;19.670;2023-02-01T04:55:03;98203.28;;;2.92
22269;BMP280;11303;50.772;19.670;2023-02-01T04:57:05;98203.28;;;2.92
22269;BMP280;11303;50.772;19.670;2023-02-01T04:59:07;98195.84;;;2.94
22269;BMP280;11303;50.772;19.670;2023-02-01T05:01:08;98190.94;;;2.92
22269;BMP280;11303;50.772;19.670;2023-02-01T05:03:10;98198.03;;;2.92
22269;BMP280;11303;50.772;19.670;2023-02-01T05:05:11;98189.78;;;2.90
22269;BMP280;11303;50.772;19.670;2023-02-01T05:07:13;98194.94;;;2.83
22269;BMP280;11303;50.772;19.670;2023-02-01T05:09:15;98191.09;;;2.77
22269;BMP280;11303;50.772;19.670;2023-02-01T05:11:16;98184.63;;;2.71
22269;BMP280;11303;50.772;19.670;2023-02-01T05:13:36;98180.88;;;2.68
22269;BMP280;11303;50.772;19.670;2023-02-01T05:15:50;98178.59;;;2.67
22269;BMP280;11303;50.772;19.670;2023-02-01T05:17:52;98168.47;;;2.65
22269;BMP280;11303;50.772;19.670;2023-02-01T05:19:54;98178.09;;;2.58
22269;BMP280;11303;50.772;19.670;2023-02-01T05:21:55;98185.44;;;2.49
22269;BMP280;11303;50.772;19.670;2023-02-01T05:23:57;98192.06;;;2.43
22269;BMP280;11303;50.772;19.670;2023-02-01T05:26:10;98194.75;;;2.46
22269;BMP280;11303;50.772;19.670;2023-02-01T05:28:12;98189.16;;;2.48
22269;BMP280;11303;50.772;19.670;2023-02-01T05:30:14;98193.69;;;2.51
22269;BMP280;11303;50.772;19.670;2023-02-01T05:32:15;98184.31;;;2.50
22269;BMP280;11303;50.772;19.670;2023-02-01T05:34:23;98183.63;;;2.53
22269;BMP280;11303;50.772;19.670;2023-02-01T05:36:25;98192.31;;;2.57
22269;BMP280;11303;50.772;19.670;2023-02-01T05:38:26;98191.94;;;2.58
22269;BMP280;11303;50.772;19.670;2023-02-01T05:40:28;98202.06;;;2.60
22269;BMP280;11303;50.772;19.670;2023-02-01T05:42:29;98206.97;;;2.65
22269;BMP280;11303;50.772;19.670;2023-02-01T05:44:31;98199.88;;;2.65
22269;BMP280;11303;50.772;19.670;2023-02-01T05:46:34;98192.44;;;2.67
22269;BMP280;11303;50.772;19.670;2023-02-01T05:48:36;98185.69;;;2.66
22269;BMP280;11303;50.772;19.670;2023-02-01T05:50:37;98184.91;;;2.66
22269;BMP280;11303;50.772;19.670;2023-02-01T05:52:39;98176.72;;;2.67
22269;BMP280;11303;50.772;19.670;2023-02-01T05:54:41;98177.47;;;2.68
22269;BMP280;11303;50.772;19.670;2023-02-01T05:56:42;98181.94;;;2.67
22269;BMP280;11303;50.772;19.670;2023-02-01T05:58:44;98195.47;;;2.69
22269;BMP280;11303;50.772;19.670;2023-02-01T06:00:45;98187.25;;;2.71
22269;BMP280;11303;50.772;19.670;2023-02-01T06:02:47;98190.28;;;2.73
22269;BMP280;11303;50.772;19.670;2023-02-01T06:04:48;98180.63;;;2.77
22269;BMP280;11303;50.772;19.670;2023-02-01T06:06:50;98177.66;;;2.78
22269;BMP280;11303;50.772;19.670;2023-02-01T06:08:51;98177.31;;;2.80
22269;BMP280;11303;50.772;19.670;2023-02-01T06:11:01;98181.41;;;2.81
22269;BMP280;11303;50.772;19.670;2023-02-01T06:13:03;98170.94;;;2.81
22269;BMP280;11303;50.772;19.670;2023-02-01T06:15:05;98176.19;;;2.81
22269;BMP280;11303;50.772;19.670;2023-02-01T06:17:07;98170.94;;;2.81
22269;BMP280;11303;50.772;19.670;2023-02-01T06:19:09;98173.22;;;2.82
22269;BMP280;11303;50.772;19.670;2023-02-01T06:21:11;98170.94;;;2.81
22269;BMP280;11303;50.772;19.670;2023-02-01T06:23:14;98179.22;;;2.83
22269;BMP280;11303;50.772;19.670;2023-02-01T06:25:16;98170.25;;;2.84
22269;BMP280;11303;50.772;19.670;2023-02-01T06:27:18;98178.53;;;2.86
22269;BMP280;11303;50.772;19.670;2023-02-01T06:29:20;98180.78;;;2.87
22269;BMP280;11303;50.772;19.670;2023-02-01T06:31:22;98170.31;;;2.87
22269;BMP280;11303;50.772;19.670;2023-02-01T06:33:25;98170.72;;;2.89
22269;BMP280;11303;50.772;19.670;2023-02-01T06:35:26;98170.34;;;2.91
22269;BMP280;11303;50.772;19.670;2023-02-01T06:37:28;98172.97;;;2.91
22269;BMP280;11303;50.772;19.670;2023-02-01T06:39:30;98174.09;;;2.90
22269;BMP280;11303;50.772;19.670;2023-02-01T06:41:32;98169.59;;;2.90
22269;BMP280;11303;50.772;19.670;2023-02-01T06:43:35;98170.72;;;2.89
22269;BMP280;11303;50.772;19.670;2023-02-01T06:45:38;98169.59;;;2.90
22269;BMP280;11303;50.772;19.670;2023-02-01T06:47:39;98177.09;;;2.92
22269;BMP280;11303;50.772;19.670;2023-02-01T06:49:41;98183.81;;;2.93
22269;BMP280;11303;50.772;19.670;2023-02-01T06:51:42;98181.97;;;2.93
22269;BMP280;11303;50.772;19.670;2023-02-01T06:53:44;98179.41;;;2.97
22269;BMP280;11303;50.772;19.670;2023-02-01T06:57:55;98186.22;;;3.01
22269;BMP280;11303;50.772;19.670;2023-02-01T06:59:56;98178.00;;;3.03
22269;BMP280;11303;50.772;19.670;2023-02-01T07:01:58;98187.38;;;3.04
22269;BMP280;11303;50.772;19.670;2023-02-01T07:04:00;98180.22;;;3.01
22269;BMP280;11303;50.772;19.670;2023-02-01T07:06:01;98170.16;;;3.03
22269;BMP280;11303;50.772;19.670;2023-02-01T07:08:03;98179.50;;;3.04
22269;BMP280;11303;50.772;19.670;2023-02-01T07:10:05;98167.56;;;3.06
22269;BMP280;11303;50.772;19.670;2023-02-01T07:12:07;98169.44;;;3.06
22269;BMP280;11303;50.772;19.670;2023-02-01T07:14:09;98167.22;;;3.08
22269;BMP280;11303;50.772;19.670;2023-02-01T07:16:18;98162.38;;;3.10
22269;BMP280;11303;50.772;19.670;2023-02-01T07:18:19;98167.69;;;3.13
22269;BMP280;11303;50.772;19.670;2023-02-01T07:20:21;98158.00;;;3.17
22269;BMP280;11303;50.772;19.670;2023-02-01T07:22:23;98166.63;;;3.18
22269;BMP280;11303;50.772;19.670;2023-02-01T07:24:25;98154.25;;;3.18
22269;BMP280;11303;50.772;19.670;2023-02-01T07:26:27;98161.75;;;3.20
22269;BMP280;11303;50.772;19.670;2023-02-01T07:28:30;98150.63;;;3.30
22269;BMP280;11303;50.772;19.670;2023-02-01T07:30:32;98146.22;;;3.34
22269;BMP280;11303;50.772;19.670;2023-02-01T07:32:36;98151.09;;;3.35
22269;BMP280;11303;50.772;19.670;2023-02-01T07:34:38;98150.41;;;3.38
22269;BMP280;11303;50.772;19.670;2023-02-01T07:36:39;98147.81;;;3.42
22269;BMP280;11303;50.772;19.670;2023-02-01T07:38:41;98148.22;;;3.44
22269;BMP280;11303;50.772;19.670;2023-02-01T07:40:43;98136.56;;;3.45
22269;BMP280;11303;50.772;19.670;2023-02-01T07:42:45;98149.38;;;3.50
22269;BMP280;11303;50.772;19.670;2023-02-01T07:44:46;98146.44;;;3.55
22269;BMP280;11303;50.772;19.670;2023-02-01T07:46:49;98156.59;;;3.60
22269;BMP280;11303;50.772;19.670;2023-02-01T07:48:50;98144.31;;;3.64
22269;BMP280;11303;50.772;19.670;2023-02-01T07:51:02;98160.50;;;3.73
22269;BMP280;11303;50.772;19.670;2023-02-01T07:53:03;98148.59;;;3.79
22269;BMP280;11303;50.772;19.670;2023-02-01T07:55:05;98158.03;;;3.90
22269;BMP280;11303;50.772;19.670;2023-02-01T07:57:07;98153.56;;;3.94
22269;BMP280;11303;50.772;19.670;2023-02-01T07:59:10;98149.81;;;3.92
22269;BMP280;11303;50.772;19.670;2023-02-01T08:01:17;98145.66;;;3.87
22269;BMP280;11303;50.772;19.670;2023-02-01T08:03:22;98143.44;;;3.93
22269;BMP280;11303;50.772;19.670;2023-02-01T08:05:23;98143.81;;;3.91
22269;BMP280;11303;50.772;19.670;2023-02-01T08:07:25;98155.41;;;3.87
22269;BMP280;11303;50.772;19.670;2023-02-01T08:09:27;98155.03;;;3.85
22269;BMP280;11303;50.772;19.670;2023-02-01T08:11:28;98154.22;;;3.81
22269;BMP280;11303;50.772;19.670;2023-02-01T08:13:30;98158.72;;;3.80
22269;BMP280;11303;50.772;19.670;2023-02-01T08:15:32;98163.97;;;3.80
22269;BMP280;11303;50.772;19.670;2023-02-01T08:17:34;98167.72;;;3.83
22269;BMP280;11303;50.772;19.670;2023-02-01T08:19:35;98166.22;;;3.82
22269;BMP280;11303;50.772;19.670;2023-02-01T08:21:37;98159.94;;;3.90
22269;BMP280;11303;50.772;19.670;2023-02-01T08:23:40;98160.38;;;3.99
22269;BMP280;11303;50.772;19.670;2023-02-01T08:25:41;98153.63;;;3.98
22269;BMP280;11303;50.772;19.670;2023-02-01T08:27:43;98155.16;;;4.02
22269;BMP280;11303;50.772;19.670;2023-02-01T08:29:45;98156.72;;;4.07
22269;BMP280;11303;50.772;19.670;2023-02-01T08:31:47;98159.34;;;4.07
22269;BMP280;11303;50.772;19.670;2023-02-01T08:33:53;98167.94;;;4.04
22269;BMP280;11303;50.772;19.670;2023-02-01T08:35:55;98164.22;;;4.12
22269;BMP280;11303;50.772;19.670;2023-02-01T08:37:57;98160.50;;;4.13
22269;BMP280;11303;50.772;19.670;2023-02-01T08:39:58;98159.06;;;4.19
22269;BMP280;11303;50.772;19.670;2023-02-01T08:42:00;98167.41;;;4.31
22269;BMP280;11303;50.772;19.670;2023-02-01T08:44:20;98163.69;;;4.36
22269;BMP280;11303;50.772;19.670;2023-02-01T08:46:22;98160.00;;;4.44
22269;BMP280;11303;50.772;19.670;2023-02-01T08:48:25;98172.81;;;4.49
22269;BMP280;11303;50.772;19.670;2023-02-01T08:50:26;98161.97;;;4.57
22269;BMP280;11303;50.772;19.670;2023-02-01T08:52:28;98167.31;;;4.68
22269;BMP280;11303;50.772;19.670;2023-02-01T08:54:29;98166.91;;;4.69
22269;BMP280;11303;50.772;19.670;2023-02-01T08:56:31;98171.41;;;4.69
22269;BMP280;11303;50.772;19.670;2023-02-01T08:58:33;98160.53;;;4.67
22269;BMP280;11303;50.772;19.670;2023-02-01T09:00:34;98148.44;;;4.55
22269;BMP280;11303;50.772;19.670;2023-02-01T09:02:36;98162.16;;;4.28
22269;BMP280;11303;50.772;19.670;2023-02-01T09:04:38;98158.63;;;4.10
22269;BMP280;11303;50.772;19.670;2023-02-01T09:06:40;98166.81;;;4.05
22269;BMP280;11303;50.772;19.670;2023-02-01T09:08:43;98164.97;;;4.12
22269;BMP280;11303;50.772;19.670;2023-02-01T09:10:44;98173.31;;;4.21
22269;BMP280;11303;50.772;19.670;2023-02-01T09:12:46;98164.78;;;4.28
22269;BMP280;11303;50.772;19.670;2023-02-01T09:14:47;98157.78;;;4.46
22269;BMP280;11303;50.772;19.670;2023-02-01T09:16:49;98169.91;;;4.64
22269;BMP280;11303;50.772;19.670;2023-02-01T09:18:51;98163.16;;;4.70
22269;BMP280;11303;50.772;19.670;2023-02-01T09:21:12;98155.38;;;4.27
22269;BMP280;11303;50.772;19.670;2023-02-01T09:23:14;98164.66;;;3.77
22269;BMP280;11303;50.772;19.670;2023-02-01T09:25:15;98175.06;;;3.37
22269;BMP280;11303;50.772;19.670;2023-02-01T09:27:17;98171.16;;;3.24
22269;BMP280;11303;50.772;19.670;2023-02-01T09:29:19;98156.16;;;3.21
22269;BMP280;11303;50.772;19.670;2023-02-01T09:31:20;98158.41;;;3.23
22269;BMP280;11303;50.772;19.670;2023-02-01T09:33:22;98157.84;;;3.36
22269;BMP280;11303;50.772;19.670;2023-02-01T09:35:25;98149.44;;;3.53
22269;BMP280;11303;50.772;19.670;2023-02-01T09:37:26;98151.09;;;3.72
22269;BMP280;11303;50.772;19.670;2023-02-01T09:39:28;98133.22;;;3.81
22269;BMP280;11303;50.772;19.670;2023-02-01T09:43:56;98134.31;;;4.20
22269;BMP280;11303;50.772;19.670;2023-02-01T09:46:27;98140.56;;;4.55
22269;BMP280;11303;50.772;19.670;2023-02-01T09:48:33;98142.06;;;4.56
22269;BMP280;11303;50.772;19.670;2023-02-01T09:50:39;98116.63;;;4.64
22269;BMP280;11303;50.772;19.670;2023-02-01T09:52:46;98124.28;;;4.97
22269;BMP280;11303;50.772;19.670;2023-02-01T09:54:54;98117.25;;;5.15
22269;BMP280;11303;50.772;19.670;2023-02-01T09:57:11;98121.31;;;5.09
22269;BMP280;11303;50.772;19.670;2023-02-01T09:59:37;98122.16;;;5.27
22269;BMP280;11303;50.772;19.670;2023-02-01T10:01:40;98100.72;;;5.25
22269;BMP280;11303;50.772;19.670;2023-02-01T10:03:44;98108.94;;;5.06
22269;BMP280;11303;50.772;19.670;2023-02-01T10:08:33;98099.56;;;5.08
22269;BMP280;11303;50.772;19.670;2023-02-01T10:10:44;98113.00;;;4.93
22269;BMP280;11303;50.772;19.670;2023-02-01T10:13:07;98106.91;;;4.75
22269;BMP280;11303;50.772;19.670;2023-02-01T10:15:38;98097.53;;;4.74
22269;BMP280;11303;50.772;19.670;2023-02-01T10:18:14;98102.75;;;4.63
22269;BMP280;11303;50.772;19.670;2023-02-01T10:22:43;98097.91;;;4.76
22269;BMP280;11303;50.772;19.670;2023-02-01T10:27:22;98113.44;;;5.02
22269;BMP280;11303;50.772;19.670;2023-02-01T10:29:28;98110.44;;;5.03
22269;BMP280;11303;50.772;19.670;2023-02-01T10:31:35;98098.06;;;5.11
22269;BMP280;11303;50.772;19.670;2023-02-01T10:33:49;98111.63;;;5.27
22269;BMP280;11303;50.772;19.670;2023-02-01T10:35:56;98108.66;;;5.39
22269;BMP280;11303;50.772;19.670;2023-02-01T10:38:01;98109.84;;;5.59
22269;BMP280;11303;50.772;19.670;2023-02-01T10:40:20;98108.34;;;5.72
22269;BMP280;11303;50.772;19.670;2023-02-01T10:42:26;98111.75;;;5.80
22269;BMP280;11303;50.772;19.670;2023-02-01T10:44:30;98097.47;;;5.81
22269;BMP280;11303;50.772;19.670;2023-02-01T10:46:33;98114.00;;;5.78
22269;BMP280;11303;50.772;19.670;2023-02-01T10:48:35;98104.19;;;5.68
22269;BMP280;11303;50.772;19.670;2023-02-01T10:51:06;98101.97;;;5.66
22269;BMP280;11303;50.772;19.670;2023-02-01T10:53:17;98089.19;;;5.79
22269;BMP280;11303;50.772;19.670;2023-02-01T10:57:29;98101.97;;;5.80
22269;BMP280;11303;50.772;19.670;2023-02-01T10:59:33;98095.22;;;5.93
22269;BMP280;11303;50.772;19.670;2023-02-01T11:01:39;98085.44;;;5.90
22269;BMP280;11303;50.772;19.670;2023-02-01T11:05:55;98091.81;;;5.89
22269;BMP280;11303;50.772;19.670;2023-02-01T11:07:58;98078.66;;;5.82
22269;BMP280;11303;50.772;19.670;2023-02-01T11:10:02;98074.91;;;5.76
22269;BMP280;11303;50.772;19.670;2023-02-01T11:12:04;98082.41;;;5.67
22269;BMP280;11303;50.772;19.670;2023-02-01T11:14:14;98065.50;;;5.79
22269;BMP280;11303;50.772;19.670;2023-02-01T11:16:18;98070.75;;;5.89
22269;BMP280;11303;50.772;19.670;2023-02-01T11:18:26;98070.75;;;5.89
22269;BMP280;11303;50.772;19.670;2023-02-01T11:22:33;98065.88;;;5.98
22269;BMP280;11303;50.772;19.670;2023-02-01T11:24:35;98057.59;;;6.00
22269;BMP280;11303;50.772;19.670;2023-02-01T11:26:39;98054.63;;;5.94
22269;BMP280;11303;50.772;19.670;2023-02-01T11:28:52;98062.50;;;6.05
22269;BMP280;11303;50.772;19.670;2023-02-01T11:30:56;98061.34;;;6.09
22269;BMP280;11303;50.772;19.670;2023-02-01T11:33:01;98054.59;;;6.19
22269;BMP280;11303;50.772;19.670;2023-02-01T11:35:07;98052.34;;;6.17
22269;BMP280;11303;50.772;19.670;2023-02-01T11:37:29;98047.44;;;6.12
22269;BMP280;11303;50.772;19.670;2023-02-01T11:39:33;98047.06;;;6.17
22269;BMP280;11303;50.772;19.670;2023-02-01T11:41:42;98050.44;;;6.14
22269;BMP280;11303;50.772;19.670;2023-02-01T11:43:59;98047.84;;;6.04
22269;BMP280;11303;50.772;19.670;2023-02-01T11:46:02;98045.56;;;5.99
22269;BMP280;11303;50.772;19.670;2023-02-01T11:48:09;98049.69;;;6.10
22269;BMP280;11303;50.772;19.670;2023-02-01T11:50:26;98050.47;;;6.07
22269;BMP280;11303;50.772;19.670;2023-02-01T11:52:40;98058.34;;;6.07
22269;BMP280;11303;50.772;19.670;2023-02-01T11:59:26;98047.09;;;5.75
22269;BMP280;11303;50.772;19.670;2023-02-01T12:06:46;98056.78;;;5.22
22269;BMP280;11303;50.772;19.670;2023-02-01T12:13:20;98053.31;;;4.90
22269;BMP280;11303;50.772;19.670;2023-02-01T12:15:34;98052.47;;;4.61
22269;BMP280;11303;50.772;19.670;2023-02-01T12:17:54;98046.00;;;4.41
22269;BMP280;11303;50.772;19.670;2023-02-01T12:27:12;98039.28;;;4.54
22269;BMP280;11303;50.772;19.670;2023-02-01T12:31:46;98042.56;;;4.37
22269;BMP280;11303;50.772;19.670;2023-02-01T12:36:21;98033.25;;;4.50
22269;BMP280;11303;50.772;19.670;2023-02-01T12:38:51;98029.59;;;4.65
22269;BMP280;11303;50.772;19.670;2023-02-01T12:41:12;98021.75;;;4.76
22269;BMP280;11303;50.772;19.670;2023-02-01T12:46:01;98023.00;;;5.24
22269;BMP280;11303;50.772;19.670;2023-02-01T12:50:22;98017.81;;;5.66
22269;BMP280;11303;50.772;19.670;2023-02-01T12:54:47;98011.03;;;5.72
22269;BMP280;11303;50.772;19.670;2023-02-01T12:56:55;98011.03;;;5.72
22269;BMP280;11303;50.772;19.670;2023-02-01T12:59:01;98005.03;;;5.65
22269;BMP280;11303;50.772;19.670;2023-02-01T13:01:06;98004.66;;;5.66
22269;BMP280;11303;50.772;19.670;2023-02-01T13:03:26;98005.38;;;5.53
22269;BMP280;11303;50.772;19.670;2023-02-01T13:05:42;98011.78;;;5.48
22269;BMP280;11303;50.772;19.670;2023-02-01T13:07:53;97996.00;;;5.34
22269;BMP280;11303;50.772;19.670;2023-02-01T13:12:06;98005.00;;;5.19
22269;BMP280;11303;50.772;19.670;2023-02-01T13:16:44;97995.19;;;4.95
22269;BMP280;11303;50.772;19.670;2023-02-01T13:18:49;98013.59;;;4.95
22269;BMP280;11303;50.772;19.670;2023-02-01T13:21:15;98015.81;;;4.93
22269;BMP280;11303;50.772;19.670;2023-02-01T13:23:39;98012.06;;;4.90